Time;durP1;ratioP1;P1;durP2;ratioP2;P2;SDS_P1;SDS_P2;PMS_P1;PMS_P2;Temp;Humidity;BMP_temperature;BMP_pressure;BME280_temperature;BME280_humidity;BME280_pressure;Samples;Min_cycle;Max_cycle;Signal;HPM_P1;HPM_P2
2022/04/09 00:00:27;;;;;;;19.15;7.20;;;;;;;15.59;53.35;99799.72;5115872;28;20034;-82
2022/04/09 00:02:52;;;;;;;20.73;7.05;;;;;;;15.58;53.19;99797.16;5116854;28;20378;-81
2022/04/09 00:05:18;;;;;;;11.68;7.43;;;;;;;15.53;53.25;99794.16;5124681;28;20010;-81
2022/04/09 00:07:43;;;;;;;14.32;7.05;;;;;;;15.51;53.58;99798.88;5136387;28;20040;-81
2022/04/09 00:10:11;;;;;;;13.25;5.40;;;;;;;15.43;53.36;99793.50;5120923;28;20019;-82
2022/04/09 00:12:38;;;;;;;17.13;6.72;;;;;;;15.38;53.47;99793.19;5132855;28;20035;-82
2022/04/09 00:15:05;;;;;;;15.98;4.97;;;;;;;15.31;53.46;99789.47;5133119;28;20055;-81
2022/04/09 00:17:44;;;;;;;12.30;6.22;;;;;;;15.31;53.51;99786.75;5130842;28;20019;-81
2022/04/09 00:20:11;;;;;;;13.05;5.20;;;;;;;15.28;53.20;99787.97;5098306;28;20098;-82
2022/04/09 00:22:38;;;;;;;14.68;5.15;;;;;;;15.27;53.49;99781.69;5098113;28;20047;-82
2022/04/09 00:25:08;;;;;;;10.77;4.88;;;;;;;15.24;53.20;99784.75;5097596;28;20024;-83
2022/04/09 00:27:35;;;;;;;9.00;4.35;;;;;;;15.19;53.35;99781.75;5102336;28;20073;-81
2022/04/09 00:30:02;;;;;;;14.70;5.20;;;;;;;15.15;53.23;99774.97;5114008;28;20507;-83
2022/04/09 00:32:28;;;;;;;18.60;4.82;;;;;;;15.15;53.42;99780.38;5114439;28;20028;-82
2022/04/09 00:34:53;;;;;;;10.90;4.15;;;;;;;15.13;53.42;99785.16;5114522;28;20124;-82
2022/04/09 00:37:19;;;;;;;10.80;4.80;;;;;;;15.15;53.36;99784.97;5114173;28;20401;-82
2022/04/09 00:39:44;;;;;;;15.80;5.63;;;;;;;15.14;53.20;99792.22;5114528;28;20027;-82
2022/04/09 00:42:14;;;;;;;13.25;4.30;;;;;;;15.14;53.20;99784.09;5113982;28;20058;-82
2022/04/09 00:44:39;;;;;;;13.85;4.97;;;;;;;15.17;52.85;99781.06;5114259;28;20027;-82
2022/04/09 00:47:05;;;;;;;8.90;3.55;;;;;;;15.12;52.94;99778.03;5114485;28;20038;-82
2022/04/09 00:49:31;;;;;;;9.10;4.47;;;;;;;15.11;52.41;99775.47;5114743;28;20027;-82
2022/04/09 00:52:00;;;;;;;10.52;4.45;;;;;;;15.05;52.49;99770.75;5114250;28;20054;-82
2022/04/09 00:54:29;;;;;;;12.73;4.70;;;;;;;15.13;52.25;99768.03;5114053;28;20140;-82
2022/04/09 00:56:59;;;;;;;9.60;3.92;;;;;;;15.20;52.12;99764.44;5113367;28;20067;-82
2022/04/09 00:59:29;;;;;;;9.82;3.55;;;;;;;15.27;51.66;99762.72;5113708;28;20027;-82
2022/04/09 01:01:55;;;;;;;11.95;3.17;;;;;;;15.36;51.49;99770.81;5113964;28;20028;-82
2022/04/09 01:04:20;;;;;;;10.68;3.75;;;;;;;15.32;51.54;99761.38;5112840;28;20024;-82
2022/04/09 01:06:47;;;;;;;10.68;3.55;;;;;;;15.40;51.71;99769.44;5112959;28;20393;-82
2022/04/09 01:09:12;;;;;;;10.55;4.18;;;;;;;15.41;51.70;99766.53;5112827;28;20038;-82
2022/04/09 01:11:39;;;;;;;8.10;3.38;;;;;;;15.40;51.67;99764.88;5113406;28;20400;-82
2022/04/09 01:14:04;;;;;;;13.85;2.72;;;;;;;15.42;51.87;99751.13;5114082;28;20027;-82
2022/04/09 01:16:30;;;;;;;12.32;4.05;;;;;;;15.38;51.97;99757.97;5114221;28;20037;-82
2022/04/09 01:19:00;;;;;;;8.88;3.58;;;;;;;15.31;52.11;99751.53;5114374;28;20028;-82
2022/04/09 01:21:28;;;;;;;11.07;3.65;;;;;;;15.29;52.21;99756.31;5114012;28;20023;-84
2022/04/09 01:23:57;;;;;;;17.70;3.67;;;;;;;15.21;52.48;99758.03;5113881;28;20123;-82
2022/04/09 01:26:23;;;;;;;3.75;2.63;;;;;;;15.13;52.63;99754.50;5124340;28;20051;-82
2022/04/09 01:28:49;;;;;;;11.35;3.75;;;;;;;15.06;52.84;99757.06;5114985;28;20027;-83
2022/04/09 01:31:15;;;;;;;17.35;4.15;;;;;;;14.97;52.92;99758.09;5114221;28;20081;-82
2022/04/09 01:33:41;;;;;;;11.20;4.13;;;;;;;14.95;53.13;99751.19;5114606;28;20024;-82
2022/04/09 01:36:07;;;;;;;9.57;3.42;;;;;;;14.95;53.35;99748.47;5113902;28;20096;-82
2022/04/09 01:38:34;;;;;;;8.00;4.05;;;;;;;14.96;53.31;99745.59;5114141;28;20027;-82
2022/04/09 01:41:01;;;;;;;12.75;3.97;;;;;;;14.91;53.31;99731.72;5113985;28;20031;-82
2022/04/09 01:43:26;;;;;;;7.18;4.00;;;;;;;14.93;53.24;99748.63;5113359;28;20024;-82
2022/04/09 01:45:52;;;;;;;8.82;4.15;;;;;;;15.00;53.14;99730.69;5113443;28;20035;-83
2022/04/09 01:48:18;;;;;;;15.43;4.55;;;;;;;14.89;53.27;99720.22;5113997;28;20035;-83
2022/04/09 01:50:43;;;;;;;12.25;4.28;;;;;;;14.87;53.33;99724.97;5114173;28;20042;-83
2022/04/09 01:53:08;;;;;;;12.23;4.95;;;;;;;14.76;53.95;99728.06;5113677;28;20087;-82
2022/04/09 01:55:34;;;;;;;11.70;3.78;;;;;;;14.66;53.92;99711.16;5111987;28;20032;-82
2022/04/09 01:57:59;;;;;;;8.13;3.50;;;;;;;14.60;54.12;99719.97;5112434;28;20123;-82
2022/04/09 02:00:25;;;;;;;10.95;3.38;;;;;;;14.62;54.03;99721.47;5133145;28;20119;-83
2022/04/09 02:02:51;;;;;;;5.97;3.83;;;;;;;14.66;54.19;99730.09;5116095;28;20084;-82
2022/04/09 02:05:17;;;;;;;11.00;4.03;;;;;;;14.61;54.24;99718.97;5114012;28;20023;-83
2022/04/09 02:07:43;;;;;;;17.60;3.60;;;;;;;14.72;54.09;99721.28;5113974;28;20482;-83
2022/04/09 02:10:09;;;;;;;10.40;3.15;;;;;;;14.69;54.17;99732.47;5113673;28;20510;-82
2022/04/09 02:12:36;;;;;;;13.85;3.88;;;;;;;14.75;53.54;99726.34;5113395;28;20520;-82
2022/04/09 02:15:10;;;;;;;10.52;5.38;;;;;;;14.77;53.34;99718.91;5112453;28;20038;-84
2022/04/09 02:17:38;;;;;;;16.25;5.28;;;;;;;14.75;53.49;99712.81;5113526;28;20028;-83
2022/04/09 02:20:05;;;;;;;23.58;5.85;;;;;;;14.68;53.40;99706.41;5113945;28;20028;-82
2022/04/09 02:22:45;;;;;;;12.90;4.80;;;;;;;14.69;53.24;99710.81;5096628;28;20044;-83
2022/04/09 02:25:13;;;;;;;8.25;4.53;;;;;;;14.72;53.08;99724.00;5108591;28;20077;-82
2022/04/09 02:27:38;;;;;;;7.20;3.85;;;;;;;14.73;53.04;99716.72;5116540;28;20110;-82
2022/04/09 02:30:06;;;;;;;11.25;4.35;;;;;;;14.79;53.12;99721.44;5116537;28;20059;-82
2022/04/09 02:32:31;;;;;;;7.40;3.67;;;;;;;14.79;52.86;99721.44;5116300;27;20035;-82
2022/04/09 02:34:57;;;;;;;7.60;3.38;;;;;;;14.78;52.62;99720.59;5116848;28;20020;-82
2022/04/09 02:37:23;;;;;;;15.50;4.07;;;;;;;14.72;52.60;99724.00;5116994;28;20028;-82
2022/04/09 02:39:49;;;;;;;10.77;4.05;;;;;;;14.65;52.61;99714.88;5116666;28;20056;-82
2022/04/09 02:42:14;;;;;;;17.63;4.85;;;;;;;14.60;52.94;99728.09;5116529;28;20027;-82
2022/04/09 02:44:41;;;;;;;6.82;3.30;;;;;;;14.56;53.07;99730.28;5116698;28;20103;-82
2022/04/09 02:47:06;;;;;;;10.15;3.95;;;;;;;14.54;53.14;99731.47;5116372;28;20023;-82
2022/04/09 02:49:32;;;;;;;15.38;4.53;;;;;;;14.47;53.25;99728.63;5116767;28;20035;-82
2022/04/09 02:51:58;;;;;;;17.60;4.05;;;;;;;14.37;53.41;99730.66;5100737;28;20028;-82
2022/04/09 02:54:23;;;;;;;6.32;3.15;;;;;;;14.28;53.51;99728.13;5099052;28;20027;-82
2022/04/09 02:56:49;;;;;;;13.20;4.57;;;;;;;14.16;54.14;99725.75;5116343;28;20023;-82
2022/04/09 02:59:15;;;;;;;17.48;5.22;;;;;;;14.07;54.35;99726.75;5116405;28;20035;-82
2022/04/09 03:01:42;;;;;;;15.18;5.43;;;;;;;14.00;54.28;99720.34;5116696;28;20054;-82
2022/04/09 03:04:08;;;;;;;8.93;3.60;;;;;;;13.90;54.34;99719.66;5117771;28;20016;-82
2022/04/09 03:06:33;;;;;;;20.50;4.97;;;;;;;13.89;54.66;99723.38;5123615;28;20038;-81
2022/04/09 03:08:59;;;;;;;9.68;3.90;;;;;;;13.82;55.02;99722.34;5133426;28;20447;-83
2022/04/09 03:11:25;;;;;;;20.10;5.07;;;;;;;13.77;55.32;99719.31;5115901;28;20038;-82
2022/04/09 03:13:50;;;;;;;18.15;6.65;;;;;;;13.73;55.29;99717.94;5115749;27;20027;-82
2022/04/09 03:16:15;;;;;;;28.75;11.68;;;;;;;13.58;55.51;99722.31;5116057;28;20111;-81
2022/04/09 03:18:41;;;;;;;11.38;4.75;;;;;;;13.49;55.96;99707.09;5115943;28;20051;-82
2022/04/09 03:21:06;;;;;;;20.63;6.05;;;;;;;13.43;55.99;99707.75;5115639;28;20067;-82
2022/04/09 03:23:32;;;;;;;17.10;6.32;;;;;;;13.40;55.99;99705.38;5115821;28;20060;-82
2022/04/09 03:25:57;;;;;;;26.15;6.30;;;;;;;13.40;56.20;99710.78;5115604;28;20023;-82
2022/04/09 03:28:23;;;;;;;31.33;7.20;;;;;;;13.37;56.54;99700.31;5115929;28;20031;-81
2022/04/09 03:30:48;;;;;;;19.00;5.22;;;;;;;13.38;56.64;99702.00;5115300;28;20049;-82
2022/04/09 03:33:14;;;;;;;14.93;5.13;;;;;;;13.39;56.26;99706.41;5113859;28;20028;-82
2022/04/09 03:35:40;;;;;;;14.35;4.65;;;;;;;13.41;56.26;99707.09;5115584;28;20103;-82
2022/04/09 03:38:05;;;;;;;16.52;4.97;;;;;;;13.44;56.23;99693.25;5115021;28;20085;-82
2022/04/09 03:40:31;;;;;;;23.23;4.60;;;;;;;13.50;56.04;99700.69;5115579;28;20370;-82
2022/04/09 03:42:56;;;;;;;15.60;5.55;;;;;;;13.49;55.95;99702.53;5116578;28;20018;-82
2022/04/09 03:45:22;;;;;;;16.58;6.40;;;;;;;13.51;56.35;99697.00;5115342;28;20024;-82
2022/04/09 03:47:47;;;;;;;49.63;6.63;;;;;;;13.47;56.45;99695.63;5116095;28;20015;-82
2022/04/09 03:50:13;;;;;;;27.75;6.40;;;;;;;13.39;56.60;99682.13;5115547;28;20471;-82
2022/04/09 03:52:38;;;;;;;22.75;6.72;;;;;;;13.31;56.63;99669.41;5127097;28;20019;-82
2022/04/09 03:55:05;;;;;;;26.50;6.68;;;;;;;13.29;56.89;99674.16;5130316;28;20058;-83
2022/04/09 03:57:31;;;;;;;42.17;7.75;;;;;;;13.21;57.15;99673.28;5116753;28;20024;-82
2022/04/09 03:59:57;;;;;;;31.08;6.40;;;;;;;13.25;57.30;99677.34;5115420;28;20023;-82
2022/04/09 04:02:23;;;;;;;28.00;6.13;;;;;;;13.19;57.21;99668.03;5115299;28;20496;-82
2022/04/09 04:04:49;;;;;;;43.97;6.85;;;;;;;13.21;57.09;99679.50;5111095;28;20035;-82
2022/04/09 04:07:20;;;;;;;32.63;7.80;;;;;;;13.23;57.49;99677.50;5113856;28;20032;-83
2022/04/09 04:09:46;;;;;;;41.65;7.70;;;;;;;13.17;57.51;99674.63;5102933;28;20039;-81
2022/04/09 04:12:11;;;;;;;50.80;9.35;;;;;;;13.22;57.29;99681.22;5115126;28;20444;-82
2022/04/09 04:14:37;;;;;;;31.80;8.27;;;;;;;13.24;57.63;99683.75;5114917;28;20122;-82
2022/04/09 04:17:02;;;;;;;41.85;8.68;;;;;;;13.20;57.64;99671.59;5114801;28;20073;-82
2022/04/09 04:19:28;;;;;;;40.40;9.25;;;;;;;13.27;57.45;99678.03;5115010;28;20017;-83
2022/04/09 04:21:53;;;;;;;108.57;16.20;;;;;;;13.30;57.61;99683.91;5114490;28;20031;-83
2022/04/09 04:24:18;;;;;;;38.45;10.15;;;;;;;13.38;57.67;99685.81;5115141;28;20036;-84
2022/04/09 04:26:44;;;;;;;68.55;9.73;;;;;;;13.45;57.30;99686.84;5114110;28;20093;-83
2022/04/09 04:29:09;;;;;;;64.97;11.63;;;;;;;13.46;57.56;99681.25;5113823;28;20023;-84
2022/04/09 04:31:35;;;;;;;85.80;12.15;;;;;;;13.54;57.37;99689.41;5114806;28;20019;-83
2022/04/09 04:34:00;;;;;;;43.53;10.40;;;;;;;13.64;57.24;99691.91;5114671;28;20019;-83
2022/04/09 04:36:26;;;;;;;46.20;8.27;;;;;;;13.68;56.77;99681.63;5117346;28;20027;-83
2022/04/09 04:38:51;;;;;;;36.50;8.35;;;;;;;13.75;56.78;99685.38;5114531;28;20066;-84
2022/04/09 04:41:17;;;;;;;47.55;11.00;;;;;;;13.82;56.33;99681.78;5114866;28;20019;-82
2022/04/09 04:43:44;;;;;;;51.00;11.85;;;;;;;13.96;56.18;99683.00;5115577;28;20024;-82
2022/04/09 04:46:10;;;;;;;107.13;27.10;;;;;;;14.08;56.26;99679.78;5114908;28;20022;-82
2022/04/09 04:48:35;;;;;;;85.03;22.75;;;;;;;14.22;55.99;99688.22;5115024;28;20398;-84
2022/04/09 04:51:01;;;;;;;83.78;20.02;;;;;;;14.34;55.76;99684.19;5130475;28;20077;-82
2022/04/09 04:53:26;;;;;;;108.55;18.02;;;;;;;14.40;55.39;99678.09;5118202;28;20128;-84
2022/04/09 04:55:52;;;;;;;68.88;15.65;;;;;;;14.51;55.33;99672.31;5115330;28;20457;-82
2022/04/09 04:58:19;;;;;;;52.38;13.63;;;;;;;14.64;55.02;99678.03;5114811;28;20026;-82
2022/04/09 05:00:44;;;;;;;59.72;12.13;;;;;;;14.77;54.91;99681.00;5117837;28;20446;-82
2022/04/09 05:03:10;;;;;;;26.60;9.60;;;;;;;14.97;54.32;99681.44;5113954;28;20015;-82
2022/04/09 05:05:35;;;;;;;32.08;9.90;;;;;;;14.94;53.86;99673.69;5094241;28;20408;-82
2022/04/09 05:08:01;;;;;;;53.92;9.88;;;;;;;15.10;53.86;99682.59;5095201;28;20053;-82
2022/04/09 05:10:27;;;;;;;37.47;9.90;;;;;;;15.21;53.42;99665.06;5100726;28;20076;-82
2022/04/09 05:12:54;;;;;;;32.63;6.95;;;;;;;15.34;52.33;99684.31;5114004;28;20030;-82
2022/04/09 05:15:20;;;;;;;26.85;5.97;;;;;;;15.51;51.82;99690.50;5098534;28;20059;-82
2022/04/09 05:17:46;;;;;;;10.20;4.43;;;;;;;15.63;51.50;99684.47;5093370;28;20031;-82
2022/04/09 05:20:16;;;;;;;10.88;4.20;;;;;;;15.79;50.75;99687.06;5094852;28;20024;-81
2022/04/09 05:22:46;;;;;;;16.13;5.13;;;;;;;15.92;50.09;99681.06;5103097;28;20071;-82
2022/04/09 05:25:13;;;;;;;27.77;5.20;;;;;;;16.05;49.77;99681.28;5093476;28;20449;-84
2022/04/09 05:27:45;;;;;;;16.67;5.70;;;;;;;16.22;49.45;99690.09;5094411;28;20066;-82
2022/04/09 05:30:11;;;;;;;29.17;6.57;;;;;;;16.37;48.87;99682.00;5094074;28;20031;-82
2022/04/09 05:32:37;;;;;;;19.35;7.25;;;;;;;16.51;48.58;99673.03;5093987;28;20020;-84
2022/04/09 05:35:04;;;;;;;11.88;4.65;;;;;;;16.59;48.05;99671.09;5093812;28;20024;-82
2022/04/09 05:37:31;;;;;;;9.48;3.75;;;;;;;16.71;47.74;99666.91;5094110;28;20085;-82
2022/04/09 05:39:57;;;;;;;6.85;3.28;;;;;;;16.84;47.22;99661.66;5094170;28;20024;-83
2022/04/09 05:42:24;;;;;;;16.10;3.20;;;;;;;16.87;46.52;99663.16;5093871;28;20024;-82
2022/04/09 05:44:49;;;;;;;8.98;3.80;;;;;;;16.97;46.65;99660.97;5102869;28;20082;-81
2022/04/09 05:47:15;;;;;;;5.45;3.25;;;;;;;17.16;46.17;99663.09;5117417;28;20016;-83
2022/04/09 05:49:40;;;;;;;9.25;3.78;;;;;;;17.25;45.64;99653.78;5119818;28;20030;-83
2022/04/09 05:52:06;;;;;;;10.80;3.75;;;;;;;17.43;45.35;99670.53;5112998;28;20061;-83
2022/04/09 05:54:31;;;;;;;14.60;4.30;;;;;;;17.54;45.02;99665.63;5111656;28;20016;-82
2022/04/09 05:56:59;;;;;;;7.57;3.75;;;;;;;17.62;45.11;99646.47;5117185;28;20429;-81
2022/04/09 05:59:26;;;;;;;10.10;3.97;;;;;;;17.81;44.50;99651.28;5117719;28;20396;-82
2022/04/09 06:01:52;;;;;;;15.75;4.13;;;;;;;17.83;44.26;99638.31;5117295;28;20098;-82
2022/04/09 06:04:21;;;;;;;14.95;4.40;;;;;;;18.00;43.92;99649.78;5116941;28;20028;-82
2022/04/09 06:06:47;;;;;;;10.65;4.07;;;;;;;18.05;43.70;99648.16;5117764;28;20023;-82
2022/04/09 06:09:13;;;;;;;8.07;3.90;;;;;;;18.06;43.23;99638.97;5117013;28;20024;-82
2022/04/09 06:11:39;;;;;;;11.20;3.97;;;;;;;18.21;42.92;99645.16;5117223;28;20023;-82
2022/04/09 06:14:05;;;;;;;8.82;3.65;;;;;;;18.24;42.53;99642.03;5117866;28;20024;-83
2022/04/09 06:16:30;;;;;;;10.98;4.13;;;;;;;18.25;42.47;99632.84;5116695;28;20024;-88
2022/04/09 06:18:56;;;;;;;15.35;3.58;;;;;;;18.41;42.33;99648.84;5116606;28;20034;-81
2022/04/09 06:21:23;;;;;;;10.45;4.30;;;;;;;18.45;42.19;99650.13;5117034;27;20023;-82
2022/04/09 06:23:49;;;;;;;19.63;5.05;;;;;;;18.55;42.51;99657.13;5116845;28;20036;-84
2022/04/09 06:26:14;;;;;;;9.80;4.32;;;;;;;18.64;41.91;99653.22;5117105;28;20027;-88
2022/04/09 06:28:40;;;;;;;25.88;4.15;;;;;;;18.73;41.86;99652.84;5117428;28;20026;-85
2022/04/09 06:31:05;;;;;;;11.85;4.72;;;;;;;18.76;41.65;99651.63;5115989;27;20083;-87
2022/04/09 06:33:30;;;;;;;21.05;4.78;;;;;;;18.81;41.82;99649.13;5136913;28;20012;-86
2022/04/09 06:35:56;;;;;;;10.10;3.95;;;;;;;18.94;41.53;99643.75;5119068;28;20396;-87
2022/04/09 06:38:21;;;;;;;23.63;4.85;;;;;;;19.11;41.55;99655.97;5117194;28;20026;-87
2022/04/09 06:40:47;;;;;;;100.60;14.23;;;;;;;19.25;41.45;99651.41;5116000;28;20019;-84
2022/04/09 06:43:12;;;;;;;30.15;5.75;;;;;;;19.38;41.04;99646.88;5097492;28;20409;-89
2022/04/09 06:45:38;;;;;;;7.78;4.93;;;;;;;19.57;40.60;99638.97;5096368;28;20024;-84
2022/04/09 06:48:03;;;;;;;7.85;3.70;;;;;;;19.48;40.54;99650.06;5095960;28;20178;-84
2022/04/09 06:50:29;;;;;;;18.65;3.15;;;;;;;19.69;40.67;99653.69;5112051;28;20112;-81
2022/04/09 06:52:54;;;;;;;9.38;3.10;;;;;;;19.74;40.37;99641.09;5122731;28;20103;-88
2022/04/09 06:55:20;;;;;;;20.83;3.95;;;;;;;19.83;40.33;99628.09;5122846;28;20047;-86
2022/04/09 06:57:46;;;;;;;15.38;4.10;;;;;;;19.93;40.11;99636.72;5128051;28;20031;-87
2022/04/09 07:00:14;;;;;;;10.23;3.63;;;;;;;20.06;40.31;99632.06;5128237;28;20106;-85
2022/04/09 07:02:40;;;;;;;10.90;3.22;;;;;;;20.15;39.81;99631.88;5122545;28;20034;-84
2022/04/09 07:05:07;;;;;;;12.05;3.97;;;;;;;20.22;39.81;99639.00;5122677;28;20061;-84
2022/04/09 07:07:33;;;;;;;14.35;3.58;;;;;;;20.17;39.56;99627.88;5125324;28;20088;-85
2022/04/09 07:10:07;;;;;;;10.60;3.10;;;;;;;20.24;39.46;99631.47;5131528;28;20030;-89
2022/04/09 07:12:33;;;;;;;24.88;2.97;;;;;;;20.20;39.39;99624.75;5129036;28;20035;-88
2022/04/09 07:14:58;;;;;;;10.10;3.42;;;;;;;20.17;39.48;99614.25;5123453;28;20030;-90
2022/04/09 07:17:29;;;;;;;12.75;3.22;;;;;;;20.35;39.52;99624.53;5125012;28;20030;-89
2022/04/09 07:20:03;;;;;;;13.98;3.80;;;;;;;20.36;39.51;99623.50;5123656;27;20087;-88
2022/04/09 07:22:28;;;;;;;13.40;3.83;;;;;;;20.45;39.48;99623.06;5125101;28;20051;-88
2022/04/09 07:24:58;;;;;;;11.75;3.97;;;;;;;20.55;39.23;99630.78;5125971;28;20458;-86
2022/04/09 07:27:39;;;;;;;6.72;3.35;;;;;;;20.63;39.25;99625.97;5124092;27;20034;-88
2022/04/09 07:30:07;;;;;;;23.40;3.15;;;;;;;20.70;39.36;99630.56;5127986;28;20031;-88
2022/04/09 07:32:32;;;;;;;5.28;2.85;;;;;;;20.69;39.08;99617.97;5122989;28;20031;-88
2022/04/09 07:34:58;;;;;;;14.32;3.47;;;;;;;20.82;39.01;99639.78;5125118;28;20023;-88
2022/04/09 07:37:24;;;;;;;12.00;3.90;;;;;;;20.84;39.07;99615.81;5126371;28;20031;-88
2022/04/09 07:39:49;;;;;;;8.43;3.60;;;;;;;20.93;39.04;99622.72;5164847;27;20049;-87
2022/04/09 07:42:15;;;;;;;12.73;2.90;;;;;;;20.89;39.09;99603.16;5138030;28;20032;-88
2022/04/09 07:44:40;;;;;;;17.70;3.60;;;;;;;21.01;39.03;99603.31;5129543;28;20024;-89
2022/04/09 07:47:06;;;;;;;23.10;4.80;;;;;;;21.08;39.19;99601.41;5128354;28;20031;-88
2022/04/09 07:49:31;;;;;;;15.13;4.65;;;;;;;21.15;38.97;99589.44;5125784;28;20096;-88
2022/04/09 07:51:59;;;;;;;15.90;4.50;;;;;;;21.31;38.83;99611.84;5127691;28;20023;-89
2022/04/09 07:54:25;;;;;;;14.90;3.70;;;;;;;21.36;38.68;99607.41;5125746;27;20079;-89
2022/04/09 07:56:50;;;;;;;7.40;3.30;;;;;;;21.41;38.54;99604.00;5124799;28;20035;-88
2022/04/09 07:59:16;;;;;;;14.20;4.18;;;;;;;21.51;38.31;99594.25;5124620;28;20103;-88
2022/04/09 08:01:41;;;;;;;11.32;3.58;;;;;;;21.61;38.39;99601.97;5124662;28;20027;-88
2022/04/09 08:04:07;;;;;;;15.80;4.43;;;;;;;21.49;38.14;99582.72;5124218;28;20021;-89
2022/04/09 08:06:32;;;;;;;12.68;4.45;;;;;;;21.68;38.18;99597.28;5125882;28;20019;-88
2022/04/09 08:08:58;;;;;;;11.75;4.18;;;;;;;21.72;37.89;99587.56;5126926;28;20471;-88
2022/04/09 08:11:24;;;;;;;13.57;4.10;;;;;;;21.77;37.88;99587.78;5129845;28;20062;-88
2022/04/09 08:13:49;;;;;;;13.43;3.47;;;;;;;21.68;37.96;99570.75;5136297;28;20154;-87
2022/04/09 08:16:15;;;;;;;12.82;3.70;;;;;;;21.78;37.65;99574.91;5126456;28;20099;-88
2022/04/09 08:18:40;;;;;;;5.88;3.25;;;;;;;21.88;37.68;99602.63;5113433;28;20096;-88
2022/04/09 08:21:07;;;;;;;5.70;3.50;;;;;;;21.87;37.70;99589.97;5115781;28;20046;-87
2022/04/09 08:23:33;;;;;;;10.65;4.43;;;;;;;21.87;38.21;99595.47;5115165;28;20078;-88
2022/04/09 08:25:58;;;;;;;21.58;3.67;;;;;;;21.85;38.13;99592.13;5115191;28;20400;-87
2022/04/09 08:28:27;;;;;;;13.98;5.07;;;;;;;21.85;38.50;99587.50;5114245;28;20118;-87
2022/04/09 08:30:52;;;;;;;24.73;4.30;;;;;;;22.06;37.63;99591.75;5117237;28;20030;-87
2022/04/09 08:33:18;;;;;;;9.73;3.42;;;;;;;22.06;37.57;99578.06;5117421;28;20023;-88
2022/04/09 08:35:43;;;;;;;12.07;3.67;;;;;;;22.16;37.49;99570.19;5120577;28;20040;-87
2022/04/09 08:38:09;;;;;;;10.88;4.00;;;;;;;22.37;37.60;99591.69;5114702;28;20047;-87
2022/04/09 08:40:37;;;;;;;12.07;3.63;;;;;;;22.44;37.36;99591.63;5114953;28;20136;-88
2022/04/09 08:43:05;;;;;;;7.35;3.55;;;;;;;22.55;36.74;99585.38;5114399;28;20020;-87
2022/04/09 08:45:36;;;;;;;15.77;3.05;;;;;;;22.61;36.36;99590.78;5114177;28;20023;-87
2022/04/09 08:48:05;;;;;;;9.45;3.95;;;;;;;22.65;36.57;99589.31;5114371;28;20508;-87
2022/04/09 08:50:31;;;;;;;7.43;3.20;;;;;;;22.72;36.10;99580.97;5114865;28;20019;-87
2022/04/09 08:52:59;;;;;;;12.70;3.95;;;;;;;22.76;36.52;99572.09;5113523;28;20023;-87
2022/04/09 08:55:25;;;;;;;11.65;4.10;;;;;;;22.56;37.26;99579.69;5114714;28;20027;-87
2022/04/09 08:57:50;;;;;;;16.70;4.25;;;;;;;22.53;37.19;99585.63;5114504;28;20405;-87
2022/04/09 09:00:17;;;;;;;17.10;4.35;;;;;;;22.38;37.86;99576.94;5115175;28;20031;-86
2022/04/09 09:03:11;;;;;;;15.00;4.05;;;;;;;22.19;38.33;99600.72;5114532;28;20095;-89
2022/04/09 09:05:45;;;;;;;12.95;3.85;;;;;;;22.16;38.10;99583.88;5112932;27;20092;-88
2022/04/09 09:08:12;;;;;;;14.30;4.05;;;;;;;22.31;38.19;99587.09;5115457;28;20035;-85
2022/04/09 09:11:05;;;;;;;16.42;3.38;;;;;;;22.40;38.36;99588.50;5116150;28;20053;-87
2022/04/09 09:13:47;;;;;;;;;;;;;;;22.54;37.41;99587.28;5113539;28;20110;-87
2022/04/09 09:16:32;;;;;;;13.95;2.92;;;;;;;22.60;37.47;99577.28;5202103;22;19978;-89
2022/04/09 09:19:02;;;;;;;20.15;4.28;;;;;;;22.77;37.65;99570.19;5079583;28;20028;-86
2022/04/09 09:21:27;;;;;;;21.60;6.35;;;;;;;22.82;37.74;99564.00;5075532;28;20478;-87
2022/04/09 09:24:14;;;;;;;12.93;3.50;;;;;;;22.91;36.83;99570.84;5075930;28;20028;-88
2022/04/09 09:26:40;;;;;;;9.95;4.82;;;;;;;23.04;36.83;99563.31;5075453;28;20074;-88
2022/04/09 09:29:08;;;;;;;12.70;2.83;;;;;;;23.12;36.34;99565.72;5092557;28;20021;-89
2022/04/09 09:31:45;;;;;;;13.15;3.05;;;;;;;23.21;35.53;99563.47;5082398;28;20028;-89
2022/04/09 09:34:12;;;;;;;7.63;3.15;;;;;;;23.28;35.03;99556.00;5098018;28;20071;-87
2022/04/09 09:36:40;;;;;;;8.43;3.25;;;;;;;23.52;35.03;99548.69;5076184;28;20013;-89
2022/04/09 09:39:07;;;;;;;9.10;2.17;;;;;;;23.67;34.25;99551.84;5067068;28;20048;-87
2022/04/09 09:41:35;;;;;;;6.72;2.33;;;;;;;23.89;33.37;99552.13;5069481;28;20029;-88
2022/04/09 09:44:05;;;;;;;10.70;2.63;;;;;;;24.04;32.67;99544.25;5068732;28;20034;-89
2022/04/09 09:46:31;;;;;;;11.20;2.08;;;;;;;24.23;32.31;99543.09;5087957;28;20055;-86
2022/04/09 09:48:56;;;;;;;6.43;1.88;;;;;;;24.31;31.76;99529.00;5068810;28;20028;-87
2022/04/09 09:51:23;;;;;;;11.20;1.77;;;;;;;24.33;32.06;99524.09;5086981;28;20080;-87
2022/04/09 09:53:49;;;;;;;10.32;2.45;;;;;;;24.54;31.80;99528.97;5077194;28;20035;-89
2022/04/09 09:56:35;;;;;;;5.20;2.40;;;;;;;24.77;31.34;99528.06;5068353;28;20036;-88
2022/04/09 09:59:02;;;;;;;8.63;2.33;;;;;;;24.79;31.16;99518.50;5077635;28;20119;-88
2022/04/09 10:01:28;;;;;;;3.88;2.22;;;;;;;24.95;31.02;99529.84;5077066;28;20021;-89
2022/04/09 10:03:54;;;;;;;8.10;2.60;;;;;;;24.82;32.72;99515.31;5076933;28;20042;-88
2022/04/09 10:06:21;;;;;;;10.85;2.45;;;;;;;24.96;32.57;99526.00;5077428;28;20020;-87
2022/04/09 10:08:47;;;;;;;14.38;3.65;;;;;;;24.66;33.49;99506.94;5059041;28;20086;-87
2022/04/09 10:11:15;;;;;;;8.23;2.67;;;;;;;24.64;33.67;99523.69;5060723;28;20024;-87
2022/04/09 10:13:43;;;;;;;10.65;2.42;;;;;;;24.34;33.38;99534.84;5083807;28;20059;-88
2022/04/09 10:16:11;;;;;;;9.75;2.30;;;;;;;24.25;33.51;99541.78;5077089;28;20040;-88
2022/04/09 10:18:36;;;;;;;33.30;4.47;;;;;;;24.11;34.33;99523.03;5078501;28;20099;-89
2022/04/09 10:21:03;;;;;;;19.13;3.65;;;;;;;23.99;34.91;99522.16;5078386;28;20543;-87
2022/04/09 10:23:32;;;;;;;8.88;3.15;;;;;;;24.06;34.36;99536.63;5078648;28;20124;-87
2022/04/09 10:26:02;;;;;;;11.80;2.45;;;;;;;23.82;35.19;99528.34;5078356;28;20024;-86
2022/04/09 10:28:33;;;;;;;6.07;2.53;;;;;;;23.94;34.74;99531.13;5079856;28;20036;-88
2022/04/09 10:30:58;;;;;;;9.13;3.28;;;;;;;23.92;35.19;99529.66;5081870;28;20024;-87
2022/04/09 10:33:30;;;;;;;8.68;2.75;;;;;;;23.77;35.39;99517.25;5079154;28;20112;-87
2022/04/09 10:36:02;;;;;;;8.45;3.15;;;;;;;23.84;35.74;99528.13;5079568;28;20025;-87
2022/04/09 10:38:28;;;;;;;17.45;2.63;;;;;;;23.83;35.29;99527.28;5077694;28;20451;-89
2022/04/09 10:40:55;;;;;;;12.32;3.67;;;;;;;23.79;35.20;99528.81;5075871;28;20112;-87
2022/04/09 10:43:24;;;;;;;10.68;3.03;;;;;;;24.11;34.99;99523.03;5076053;28;20414;-87
2022/04/09 10:46:02;;;;;;;10.07;2.83;;;;;;;24.22;34.64;99519.44;5058215;28;20082;-88
2022/04/09 10:48:31;;;;;;;6.88;3.10;;;;;;;24.18;34.88;99526.50;5057753;28;20577;-87
2022/04/09 10:51:11;;;;;;;22.40;3.97;;;;;;;24.14;34.55;99511.56;5075682;28;20033;-87
2022/04/09 10:53:40;;;;;;;9.20;3.58;;;;;;;24.37;34.63;99523.34;5075852;28;20041;-87
2022/04/09 10:56:14;;;;;;;8.07;2.47;;;;;;;24.21;34.81;99512.28;5076335;28;20067;-88
2022/04/09 10:58:58;;;;;;;11.45;2.63;;;;;;;23.96;34.78;99525.38;5076157;28;20028;-87
2022/04/09 11:01:49;;;;;;;8.48;3.38;;;;;;;23.96;35.00;99519.88;5076148;28;20020;-86
2022/04/09 11:04:35;;;;;;;10.98;3.13;;;;;;;24.10;34.68;99510.31;5076361;28;20020;-87
2022/04/09 11:07:20;;;;;;;9.07;3.85;;;;;;;24.18;34.91;99504.53;5085908;28;20090;-88
2022/04/09 11:09:58;;;;;;;6.45;2.90;;;;;;;24.26;34.55;99504.13;5089321;28;20054;-87
2022/04/09 11:12:29;;;;;;;6.50;3.13;;;;;;;24.42;34.48;99503.41;5091465;28;20028;-85
2022/04/09 11:15:00;;;;;;;5.53;2.60;;;;;;;24.55;34.37;99499.56;5091763;28;20078;-87
2022/04/09 11:17:26;;;;;;;14.90;4.03;;;;;;;24.62;34.08;99501.09;5094215;28;20036;-87
2022/04/09 11:19:53;;;;;;;9.13;2.90;;;;;;;24.79;33.69;99490.16;5076087;28;20119;-87
2022/04/09 11:22:19;;;;;;;15.40;3.45;;;;;;;24.81;33.44;99479.78;5089845;28;20033;-87
2022/04/09 11:24:44;;;;;;;9.18;3.13;;;;;;;24.85;33.76;99487.31;5075748;28;20031;-87
2022/04/09 11:27:10;;;;;;;8.57;2.55;;;;;;;24.92;33.56;99482.47;5089991;28;20048;-87